Time;durP1;ratioP1;P1;durP2;ratioP2;P2;SDS_P1;SDS_P2;PMS_P1;PMS_P2;Temp;Humidity;BMP_temperature;BMP_pressure;BME280_temperature;BME280_humidity;BME280_pressure;Samples;Min_cycle;Max_cycle;Signal;HPM_P1;HPM_P2
2021/10/10 00:02:07;;;;;;;1382.00;999.90;;;8.10;1.00;;;;;;6249872;23;20590;-79
2021/10/10 00:04:33;;;;;;;1349.93;999.90;;;8.10;1.00;;;;;;6251539;22;20304;-80
2021/10/10 00:06:59;;;;;;;1470.20;999.90;;;8.10;1.00;;;;;;6250363;23;20158;-80
2021/10/10 00:09:25;;;;;;;1303.17;999.90;;;8.00;1.00;;;;;;6252373;23;20236;-80
2021/10/10 00:11:51;;;;;;;1729.60;999.90;;;8.00;1.00;;;;;;6251875;23;20239;-81
2021/10/10 00:14:17;;;;;;;1487.23;999.90;;;8.00;1.00;;;;;;6253902;23;20169;-81
2021/10/10 00:16:43;;;;;;;1473.23;980.60;;;8.00;1.00;;;;;;6251136;23;20226;-81
2021/10/10 00:19:09;;;;;;;1567.37;999.90;;;7.40;1.00;;;;;;6248765;23;20192;-81
2021/10/10 00:21:35;;;;;;;1999.90;999.90;;;8.00;1.00;;;;;;6250747;23;20484;-80
2021/10/10 00:24:00;;;;;;;1999.90;999.90;;;7.90;1.00;;;;;;6253092;23;20158;-81
2021/10/10 00:26:26;;;;;;;1999.90;999.90;;;10.80;1.00;;;;;;6254580;23;20165;-81
2021/10/10 00:28:52;;;;;;;1209.80;752.07;;;10.80;1.00;;;;;;6255376;23;20228;-81
2021/10/10 00:31:17;;;;;;;1999.90;999.90;;;7.80;1.00;;;;;;6255167;23;20249;-81
2021/10/10 00:33:43;;;;;;;1456.40;773.50;;;7.80;1.00;;;;;;6252514;23;20257;-81
2021/10/10 00:36:09;;;;;;;1999.90;999.90;;;7.80;1.00;;;;;;6257340;23;20197;-81
2021/10/10 00:38:37;;;;;;;1999.90;999.90;;;7.80;1.00;;;;;;6255237;23;20251;-81
2021/10/10 00:41:04;;;;;;;667.43;459.40;;;7.70;1.00;;;;;;6254195;23;20158;-82
2021/10/10 00:43:30;;;;;;;1278.87;858.70;;;9.40;1.00;;;;;;6255981;23;20158;-81
2021/10/10 00:45:56;;;;;;;1999.90;999.90;;;;;;;;;;6255354;23;20158;-81
2021/10/10 00:48:22;;;;;;;1999.90;999.90;;;7.60;1.00;;;;;;6255517;23;20173;-82
2021/10/10 00:50:47;;;;;;;1999.90;999.90;;;7.60;1.00;;;;;;6256170;23;20193;-81
2021/10/10 00:53:16;;;;;;;1437.53;747.33;;;7.60;1.00;;;;;;6256860;23;20247;-81
2021/10/10 00:55:43;;;;;;;1224.77;796.43;;;7.50;1.00;;;;;;6254632;23;20181;-81
2021/10/10 00:58:11;;;;;;;632.77;404.73;;;7.40;1.00;;;;;;6256404;23;20166;-82
2021/10/10 01:00:38;;;;;;;1999.90;999.90;;;7.40;1.00;;;;;;6255471;23;20187;-81
2021/10/10 01:03:06;;;;;;;1999.90;999.90;;;7.40;1.00;;;;;;6255251;22;20178;-82
2021/10/10 01:05:32;;;;;;;1999.90;999.90;;;;;;;;;;6250685;23;20173;-81
2021/10/10 01:07:58;;;;;;;1999.90;999.90;;;7.30;1.00;;;;;;6254766;23;20160;-81
2021/10/10 01:10:24;;;;;;;1999.90;999.90;;;;;;;;;;6255726;23;20171;-82
2021/10/10 01:12:50;;;;;;;1999.90;999.90;;;;;;;;;;6256909;23;20170;-82
2021/10/10 01:15:15;;;;;;;1999.90;999.90;;;7.30;1.00;;;;;;6256880;23;20598;-82
2021/10/10 01:17:41;;;;;;;1999.90;999.90;;;7.30;1.00;;;;;;6256262;23;20166;-82
2021/10/10 01:20:10;;;;;;;962.60;801.43;;;7.30;1.00;;;;;;6255706;23;20527;-82
2021/10/10 01:22:36;;;;;;;1999.90;999.90;;;7.20;1.00;;;;;;6254605;23;20186;-81
2021/10/10 01:25:02;;;;;;;1198.50;810.03;;;;;;;;;;6255395;23;20190;-81
2021/10/10 01:27:28;;;;;;;896.53;762.13;;;7.20;1.00;;;;;;6258741;23;20224;-81
2021/10/10 01:29:53;;;;;;;1999.90;999.90;;;7.30;1.00;;;;;;6259385;23;20162;-81
2021/10/10 01:32:19;;;;;;;1999.90;999.90;;;;;;;;;;6258273;23;20246;-81
2021/10/10 01:34:47;;;;;;;1999.90;999.90;;;7.10;1.00;;;;;;6256461;23;20184;-82
2021/10/10 01:37:13;;;;;;;969.97;873.63;;;8.90;1.00;;;;;;6257972;23;20162;-82
2021/10/10 01:39:40;;;;;;;1167.87;787.80;;;7.00;1.00;;;;;;6257321;23;20658;-82
2021/10/10 01:42:05;;;;;;;862.73;774.77;;;7.00;1.00;;;;;;6257258;23;20185;-81
2021/10/10 01:44:31;;;;;;;1294.27;907.43;;;7.00;1.00;;;;;;6256296;23;20165;-81
2021/10/10 01:46:57;;;;;;;1040.17;950.57;;;6.90;1.00;;;;;;6255866;23;20599;-82
2021/10/10 01:49:23;;;;;;;1041.27;948.50;;;6.90;1.00;;;;;;6257862;23;20162;-82
2021/10/10 01:51:49;;;;;;;981.63;899.53;;;6.90;1.00;;;;;;6255850;23;20161;-82
2021/10/10 01:54:15;;;;;;;940.47;863.23;;;6.90;1.00;;;;;;6254372;23;20168;-81
2021/10/10 01:56:40;;;;;;;476.13;443.30;;;6.80;1.00;;;;;;6257930;23;20162;-81
2021/10/10 01:59:06;;;;;;;459.77;417.27;;;;;;;;;;6255719;23;20257;-82
2021/10/10 02:01:32;;;;;;;354.67;320.63;;;6.80;1.00;;;;;;6255323;23;20173;-82
2021/10/10 02:03:58;;;;;;;597.27;556.57;;;6.80;1.00;;;;;;6253583;22;20198;-82
2021/10/10 02:06:24;;;;;;;131.33;83.57;;;;;;;;;;6257332;23;20146;-82
2021/10/10 02:08:50;;;;;;;413.77;383.10;;;;;;;;;;6255564;23;20204;-82
2021/10/10 02:11:16;;;;;;;349.00;318.03;;;6.70;1.00;;;;;;6253824;23;20877;-82
2021/10/10 02:13:42;;;;;;;151.87;140.67;;;;;;;;;;6254449;23;20174;-82
2021/10/10 02:16:08;;;;;;;296.57;280.70;;;6.70;1.00;;;;;;6254186;23;20244;-82
2021/10/10 02:18:33;;;;;;;46.40;42.40;;;;;;;;;;6254370;23;20154;-82
2021/10/10 02:20:59;;;;;;;98.77;92.00;;;;;;;;;;6256766;23;20598;-82
2021/10/10 02:23:25;;;;;;;51.13;47.77;;;6.60;1.00;;;;;;6254266;23;20163;-82
2021/10/10 02:25:51;;;;;;;169.67;156.97;;;6.60;1.00;;;;;;6257599;23;20150;-82
2021/10/10 02:28:17;;;;;;;121.57;109.10;;;6.60;1.00;;;;;;6256733;23;20158;-82
2021/10/10 02:30:42;;;;;;;32.80;30.13;;;6.50;1.00;;;;;;6255147;23;20162;-80
2021/10/10 02:33:08;;;;;;;38.27;35.73;;;;;;;;;;6254874;23;20162;-82
2021/10/10 02:35:34;;;;;;;46.53;43.73;;;6.50;1.00;;;;;;6256619;23;20208;-82
2021/10/10 02:37:59;;;;;;;93.23;88.47;;;6.50;1.00;;;;;;6253917;23;20162;-82
2021/10/10 02:40:25;;;;;;;27.33;25.33;;;;;;;;;;6255215;23;20312;-82
2021/10/10 02:42:51;;;;;;;23.97;21.83;;;6.40;1.00;;;;;;6254241;23;20211;-82
2021/10/10 02:45:17;;;;;;;28.57;26.27;;;6.50;1.00;;;;;;6257216;23;20471;-82
2021/10/10 02:47:42;;;;;;;25.20;22.70;;;6.40;1.00;;;;;;6255221;23;20162;-82
2021/10/10 02:50:08;;;;;;;43.23;40.23;;;6.30;1.00;;;;;;6252398;23;20242;-82
2021/10/10 02:52:34;;;;;;;15.03;13.10;;;6.30;1.00;;;;;;6257612;23;20188;-82
2021/10/10 02:54:59;;;;;;;16.80;15.23;;;6.20;1.00;;;;;;6254102;23;20174;-82
2021/10/10 02:57:25;;;;;;;48.77;38.60;;;6.20;1.00;;;;;;6256569;23;20496;-82
2021/10/10 02:59:51;;;;;;;60.67;38.87;;;8.50;1.00;;;;;;6255073;23;20183;-82
2021/10/10 03:02:16;;;;;;;14.60;12.97;;;6.10;1.00;;;;;;6256971;23;20159;-82
2021/10/10 03:04:42;;;;;;;17.30;13.57;;;6.10;1.00;;;;;;6254409;22;20196;-82
2021/10/10 03:07:07;;;;;;;19.83;12.70;;;6.70;1.00;;;;;;6253654;23;20216;-82
2021/10/10 03:09:33;;;;;;;14.13;12.63;;;6.30;1.00;;;;;;6254760;23;20173;-83
2021/10/10 03:11:59;;;;;;;17.23;13.40;;;6.10;1.00;;;;;;6252808;23;20641;-82
2021/10/10 03:14:25;;;;;;;17.47;12.73;;;;;;;;;;6255347;23;20228;-82
2021/10/10 03:16:50;;;;;;;14.70;12.93;;;6.10;1.00;;;;;;6254131;23;20576;-82
2021/10/10 03:19:16;;;;;;;14.53;12.37;;;6.00;1.00;;;;;;6251461;23;20190;-82
2021/10/10 03:21:41;;;;;;;15.03;12.17;;;8.10;1.00;;;;;;6253946;23;20529;-82
2021/10/10 03:24:07;;;;;;;14.37;12.87;;;6.00;1.00;;;;;;6257390;23;20150;-82
2021/10/10 03:26:33;;;;;;;19.93;13.90;;;6.00;1.00;;;;;;6256139;23;20181;-83
2021/10/10 03:28:59;;;;;;;14.00;11.87;;;6.00;1.00;;;;;;6259298;23;20233;-82
2021/10/10 03:31:25;;;;;;;14.37;12.80;;;;;;;;;;6253709;23;20162;-82
2021/10/10 03:33:50;;;;;;;15.67;14.07;;;6.00;1.00;;;;;;6253076;23;20179;-82
2021/10/10 03:36:16;;;;;;;14.90;12.90;;;5.90;1.00;;;;;;6255601;23;20618;-82
2021/10/10 03:38:41;;;;;;;13.43;11.03;;;5.90;1.00;;;;;;6255008;23;20173;-82
2021/10/10 03:41:07;;;;;;;16.87;12.63;;;5.90;1.00;;;;;;6252694;23;20193;-83
2021/10/10 03:43:33;;;;;;;16.37;13.07;;;5.80;1.00;;;;;;6254107;23;20214;-82
2021/10/10 03:45:59;;;;;;;15.73;11.90;;;;;;;;;;6254906;23;20147;-83
2021/10/10 03:48:25;;;;;;;13.27;11.40;;;5.80;1.00;;;;;;6255444;23;20664;-82
2021/10/10 03:50:51;;;;;;;15.67;13.23;;;7.10;1.00;;;;;;6252368;23;20161;-82
2021/10/10 03:53:17;;;;;;;19.23;13.80;;;5.80;1.00;;;;;;6253855;23;20276;-81
2021/10/10 03:55:43;;;;;;;14.43;12.10;;;6.20;1.00;;;;;;6255507;23;20189;-82
2021/10/10 03:58:13;;;;;;;15.07;10.67;;;5.70;1.00;;;;;;6254680;23;20542;-82
2021/10/10 04:00:39;;;;;;;17.27;12.87;;;9.10;1.00;;;;;;6251408;23;20262;-82
2021/10/10 04:03:06;;;;;;;17.80;13.30;;;5.70;1.00;;;;;;6257187;22;20200;-82
2021/10/10 04:07:58;;;;;;;17.27;13.17;;;5.70;1.00;;;;;;6257086;22;20528;-82
2021/10/10 04:10:25;;;;;;;15.57;13.23;;;7.30;1.00;;;;;;6254318;23;20158;-82
2021/10/10 04:12:51;;;;;;;14.93;13.10;;;5.60;1.00;;;;;;6255287;23;20184;-82
2021/10/10 04:15:17;;;;;;;15.57;12.83;;;5.50;1.00;;;;;;6251797;23;20162;-83
2021/10/10 04:17:44;;;;;;;16.47;12.17;;;5.70;1.00;;;;;;6254798;23;20165;-82
2021/10/10 04:20:12;;;;;;;19.27;13.70;;;5.50;1.00;;;;;;6257369;23;20185;-82
2021/10/10 04:22:39;;;;;;;18.77;13.13;;;5.60;1.00;;;;;;6259467;23;20284;-82
2021/10/10 04:25:06;;;;;;;17.50;14.00;;;5.80;1.00;;;;;;6259623;23;20158;-82
2021/10/10 04:27:35;;;;;;;17.33;14.07;;;;;;;;;;6255110;23;20165;-82
2021/10/10 04:30:07;;;;;;;14.43;12.90;;;5.60;1.00;;;;;;6256640;23;20162;-82
2021/10/10 04:32:33;;;;;;;14.10;12.50;;;5.50;1.00;;;;;;6257135;23;20173;-82
2021/10/10 04:34:59;;;;;;;15.80;13.63;;;5.50;1.00;;;;;;6255454;23;20252;-82
2021/10/10 04:37:25;;;;;;;15.77;13.17;;;6.30;1.00;;;;;;6256517;23;20193;-82
2021/10/10 04:39:50;;;;;;;17.03;14.97;;;5.50;1.00;;;;;;6254500;23;20527;-83
2021/10/10 04:42:16;;;;;;;16.30;13.53;;;5.50;1.00;;;;;;6258036;23;20162;-83
2021/10/10 04:44:42;;;;;;;16.70;13.90;;;5.40;1.00;;;;;;6258442;23;20588;-82
2021/10/10 04:47:07;;;;;;;15.97;13.67;;;6.10;1.00;;;;;;6255340;23;20216;-82
2021/10/10 04:49:34;;;;;;;15.17;13.57;;;5.30;1.00;;;;;;6256597;23;20193;-82
2021/10/10 04:52:02;;;;;;;15.23;13.50;;;5.30;1.00;;;;;;6257239;23;20300;-82
2021/10/10 04:54:28;;;;;;;14.47;12.50;;;5.20;1.00;;;;;;6255710;23;20161;-82
2021/10/10 04:56:53;;;;;;;17.43;14.10;;;5.20;1.00;;;;;;6256592;23;20249;-81
2021/10/10 04:59:19;;;;;;;15.63;13.73;;;;;;;;;;6257288;23;20192;-82
2021/10/10 05:01:45;;;;;;;18.67;13.53;;;5.20;1.00;;;;;;6254538;23;20166;-82
2021/10/10 05:04:10;;;;;;;18.53;14.07;;;5.20;1.00;;;;;;6257735;22;20178;-82
2021/10/10 05:06:36;;;;;;;18.93;13.27;;;5.20;1.00;;;;;;6255246;23;20184;-82
2021/10/10 05:09:02;;;;;;;16.93;13.97;;;5.20;1.00;;;;;;6255563;23;20166;-82
2021/10/10 05:11:28;;;;;;;15.53;13.93;;;;;;;;;;6256827;23;20158;-82
2021/10/10 05:13:53;;;;;;;17.70;13.33;;;5.10;1.00;;;;;;6257257;23;20162;-82
2021/10/10 05:16:19;;;;;;;16.20;13.13;;;5.10;1.00;;;;;;6256823;23;20158;-82
2021/10/10 05:18:44;;;;;;;19.53;14.43;;;5.00;1.00;;;;;;6254673;23;20154;-82
2021/10/10 05:21:10;;;;;;;19.00;13.70;;;5.00;1.00;;;;;;6257652;23;20162;-82
2021/10/10 05:23:35;;;;;;;16.73;13.00;;;5.00;1.00;;;;;;6255745;23;20213;-83
2021/10/10 05:26:01;;;;;;;16.93;13.83;;;5.00;1.00;;;;;;6259111;23;20207;-82
2021/10/10 05:28:27;;;;;;;16.03;12.50;;;;;;;;;;6255208;23;20165;-82
2021/10/10 05:30:53;;;;;;;18.03;13.27;;;5.00;1.00;;;;;;6255691;23;20162;-82
2021/10/10 05:33:19;;;;;;;14.63;13.10;;;6.70;1.00;;;;;;6255650;23;20213;-82
2021/10/10 05:35:46;;;;;;;15.37;13.27;;;5.10;1.00;;;;;;6256133;23;20158;-82
2021/10/10 05:38:12;;;;;;;16.07;14.03;;;5.10;1.00;;;;;;6255842;23;20197;-82
2021/10/10 05:40:37;;;;;;;16.67;13.07;;;5.00;1.00;;;;;;6254048;23;20185;-82
2021/10/10 05:43:03;;;;;;;14.80;13.27;;;5.00;1.00;;;;;;6256925;23;20491;-82
2021/10/10 05:45:29;;;;;;;16.03;11.67;;;;;;;;;;6256155;23;20158;-82
2021/10/10 05:47:55;;;;;;;15.87;13.53;;;5.00;1.00;;;;;;6255067;23;20577;-82
2021/10/10 05:50:20;;;;;;;14.53;12.70;;;5.00;1.00;;;;;;6255457;23;20180;-82
2021/10/10 05:52:46;;;;;;;16.40;14.27;;;5.00;1.00;;;;;;6255532;23;20230;-82
2021/10/10 05:55:14;;;;;;;17.90;14.07;;;5.00;1.00;;;;;;6251516;23;20172;-83
2021/10/10 05:57:45;;;;;;;14.63;12.30;;;5.00;1.00;;;;;;6256194;23;20168;-82
2021/10/10 06:00:13;;;;;;;16.70;14.93;;;5.10;1.00;;;;;;6254721;23;20216;-82
2021/10/10 06:02:39;;;;;;;16.70;14.03;;;5.00;1.00;;;;;;6225602;22;21119;-82
2021/10/10 06:05:05;;;;;;;16.90;13.80;;;5.10;1.00;;;;;;6254179;23;20177;-82
2021/10/10 06:07:31;;;;;;;17.17;13.73;;;;;;;;;;6252661;23;20506;-82
2021/10/10 06:09:56;;;;;;;17.80;13.97;;;5.10;1.00;;;;;;6251387;23;20162;-82
2021/10/10 06:12:22;;;;;;;15.27;13.67;;;;;;;;;;6256566;23;20169;-82
2021/10/10 06:14:51;;;;;;;17.80;13.67;;;5.20;1.00;;;;;;6255824;23;20177;-82
2021/10/10 06:17:20;;;;;;;17.20;14.10;;;5.20;1.00;;;;;;6257379;23;20172;-82
2021/10/10 06:19:46;;;;;;;15.97;13.93;;;;;;;;;;6254058;23;20181;-82
2021/10/10 06:22:12;;;;;;;17.03;13.13;;;5.20;1.00;;;;;;6257605;23;20160;-82
2021/10/10 06:24:38;;;;;;;15.93;13.03;;;6.50;1.00;;;;;;6253740;23;20187;-82
2021/10/10 06:27:04;;;;;;;14.67;12.33;;;;;;;;;;6256422;23;20150;-82
2021/10/10 06:29:30;;;;;;;15.77;12.87;;;;;;;;;;6257412;23;20161;-81
2021/10/10 06:31:56;;;;;;;14.07;12.60;;;5.30;1.00;;;;;;6257385;23;20176;-81
2021/10/10 06:34:22;;;;;;;15.00;13.20;;;5.40;1.00;;;;;;6255923;23;20162;-81
2021/10/10 06:36:47;;;;;;;14.77;13.23;;;5.40;1.00;;;;;;6258666;23;20173;-84
2021/10/10 06:39:15;;;;;;;14.87;12.37;;;;;;;;;;6249482;23;20213;-83
2021/10/10 06:41:42;;;;;;;14.13;12.63;;;;;;;;;;6249271;23;20157;-83
2021/10/10 06:44:08;;;;;;;14.70;12.67;;;5.60;1.00;;;;;;6249614;23;20157;-83
2021/10/10 06:46:34;;;;;;;14.17;12.43;;;5.60;1.00;;;;;;6250747;23;20168;-82
2021/10/10 06:49:00;;;;;;;16.63;14.93;;;5.70;1.00;;;;;;6251584;23;20384;-82
2021/10/10 06:51:25;;;;;;;14.20;12.70;;;5.80;1.00;;;;;;6256815;23;20229;-82
2021/10/10 06:53:51;;;;;;;13.40;12.10;;;5.90;1.00;;;;;;6254269;23;20606;-82
2021/10/10 06:56:16;;;;;;;13.90;12.13;;;6.00;1.00;;;;;;6252118;23;20534;-81
2021/10/10 06:58:42;;;;;;;14.63;11.97;;;9.00;1.00;;;;;;6253664;23;20161;-81
2021/10/10 07:01:15;;;;;;;13.87;12.43;;;6.10;1.00;;;;;;6255660;23;20159;-81
2021/10/10 07:03:41;;;;;;;13.70;12.03;;;;;;;;;;6253511;22;20195;-81
2021/10/10 07:06:07;;;;;;;12.47;10.80;;;6.30;1.00;;;;;;6254967;23;20150;-81
2021/10/10 07:08:32;;;;;;;14.20;11.50;;;6.30;1.00;;;;;;6254061;23;20681;-82
2021/10/10 07:10:58;;;;;;;12.20;10.30;;;6.40;1.00;;;;;;6255267;23;20192;-80
2021/10/10 07:13:24;;;;;;;13.33;11.93;;;6.40;1.00;;;;;;6252584;23;20181;-80
2021/10/10 07:15:50;;;;;;;13.50;12.03;;;6.80;1.00;;;;;;6251185;23;20264;-80
2021/10/10 07:18:24;;;;;;;14.23;11.60;;;6.40;1.00;;;;;;6252149;23;20173;-80
2021/10/10 07:25:57;;;;;;;14.57;11.67;;;6.70;1.00;;;;;;6265034;23;20158;-78
2021/10/10 07:28:23;;;;;;;14.50;12.27;;;6.80;1.00;;;;;;6250855;23;20158;-82
2021/10/10 07:30:49;;;;;;;13.57;11.20;;;6.90;1.00;;;;;;6257214;23;20235;-81
2021/10/10 07:33:15;;;;;;;13.07;11.50;;;9.60;1.00;;;;;;6254573;23;20154;-81
2021/10/10 07:35:41;;;;;;;13.90;12.33;;;7.00;1.00;;;;;;6255697;23;20166;-81
2021/10/10 07:38:07;;;;;;;13.70;11.73;;;7.10;1.00;;;;;;6253319;23;20178;-81
2021/10/10 07:40:33;;;;;;;13.47;11.83;;;9.60;1.00;;;;;;6254196;23;20565;-82
2021/10/10 07:42:58;;;;;;;14.53;11.70;;;7.60;1.00;;;;;;6253462;23;20193;-82
2021/10/10 07:45:25;;;;;;;12.00;10.80;;;7.30;1.00;;;;;;6258345;23;20173;-82
2021/10/10 07:47:51;;;;;;;13.50;11.53;;;7.30;1.00;;;;;;6248936;23;20197;-79
2021/10/10 07:50:19;;;;;;;13.03;11.00;;;7.50;1.00;;;;;;6249839;23;20162;-79
2021/10/10 07:52:45;;;;;;;10.37;9.27;;;7.60;1.00;;;;;;6249228;23;20213;-78
2021/10/10 07:55:11;;;;;;;11.57;8.70;;;7.60;1.00;;;;;;6246240;23;20663;-78
2021/10/10 07:57:38;;;;;;;11.67;10.50;;;7.60;1.00;;;;;;6244506;23;20162;-78
2021/10/10 08:00:05;;;;;;;12.20;10.30;;;7.60;1.00;;;;;;6249059;23;20220;-79
2021/10/10 08:02:31;;;;;;;11.60;10.27;;;;;;;;;;6244166;22;20170;-77
2021/10/10 08:04:57;;;;;;;10.60;9.60;;;7.90;1.00;;;;;;6245573;22;20174;-78
2021/10/10 08:07:23;;;;;;;9.77;8.73;;;7.90;1.00;;;;;;6245022;23;20168;-77
2021/10/10 08:09:49;;;;;;;10.40;9.10;;;8.00;1.00;;;;;;6245314;23;20157;-80
2021/10/10 08:12:14;;;;;;;10.23;8.53;;;8.00;1.00;;;;;;6218191;23;20202;-77
2021/10/10 08:14:40;;;;;;;13.20;10.03;;;10.00;1.00;;;;;;6242089;23;20318;-77
2021/10/10 08:17:06;;;;;;;10.37;8.10;;;8.10;1.00;;;;;;6242441;23;20166;-77
2021/10/10 08:19:31;;;;;;;10.97;9.87;;;8.30;1.00;;;;;;6245510;23;20183;-78
2021/10/10 08:21:58;;;;;;;10.27;9.27;;;8.30;1.00;;;;;;6242372;23;20215;-78
2021/10/10 08:24:23;;;;;;;11.27;10.27;;;8.50;1.00;;;;;;6245935;23;20158;-78
2021/10/10 08:26:49;;;;;;;11.03;9.60;;;8.60;1.00;;;;;;6246467;23;20156;-77
2021/10/10 08:29:17;;;;;;;10.23;9.17;;;8.70;1.00;;;;;;6242614;23;20252;-79
2021/10/10 08:31:43;;;;;;;10.87;8.60;;;8.90;1.00;;;;;;6243892;23;20172;-80
2021/10/10 08:34:09;;;;;;;9.23;8.20;;;9.00;1.00;;;;;;6244568;23;20946;-77
2021/10/10 08:36:35;;;;;;;9.40;8.50;;;9.20;1.00;;;;;;6245255;23;20235;-77
2021/10/10 08:39:00;;;;;;;10.40;9.40;;;9.20;1.00;;;;;;6247684;23;20187;-78
2021/10/10 08:41:32;;;;;;;11.60;9.30;;;9.20;1.00;;;;;;6247067;23;20162;-77
2021/10/10 08:44:01;;;;;;;9.43;8.57;;;9.30;1.00;;;;;;6247070;23;20602;-78
2021/10/10 08:46:33;;;;;;;9.27;8.23;;;9.40;1.00;;;;;;6248274;23;20212;-78
2021/10/10 08:48:58;;;;;;;9.93;9.00;;;9.70;1.00;;;;;;6249443;22;20579;-78
2021/10/10 08:51:24;;;;;;;11.57;8.73;;;9.70;1.00;;;;;;6246601;23;20165;-78
2021/10/10 08:53:50;;;;;;;11.67;7.70;;;9.70;1.00;;;;;;6245145;23;20248;-79
2021/10/10 08:56:17;;;;;;;8.93;7.80;;;10.30;1.00;;;;;;6248395;23;20169;-77
2021/10/10 08:58:45;;;;;;;9.23;8.33;;;11.50;1.00;;;;;;6246347;23;20155;-78
2021/10/10 09:01:26;;;;;;;10.30;9.30;;;10.00;1.00;;;;;;6246290;23;20188;-79
2021/10/10 09:03:55;;;;;;;10.67;8.27;;;10.00;1.00;;;;;;6247911;22;20587;-79
2021/10/10 09:06:21;;;;;;;8.57;6.80;;;10.00;1.00;;;;;;6248441;23;20158;-77
2021/10/10 09:08:47;;;;;;;8.47;7.57;;;10.50;1.00;;;;;;6246737;23;20193;-79
2021/10/10 09:11:12;;;;;;;9.37;6.73;;;10.00;1.00;;;;;;6249853;23;20181;-79
2021/10/10 09:13:40;;;;;;;10.43;8.90;;;10.00;1.00;;;;;;6246614;23;20165;-81
2021/10/10 09:16:08;;;;;;;8.43;7.63;;;10.00;1.00;;;;;;6249130;23;20166;-79
2021/10/10 09:18:54;;;;;;;9.13;8.23;;;10.10;1.00;;;;;;6249126;23;20277;-77
2021/10/10 09:21:27;;;;;;;11.47;7.63;;;10.30;1.00;;;;;;6245498;23;20184;-79
2021/10/10 09:23:56;;;;;;;10.27;9.20;;;10.40;1.00;;;;;;6244398;23;20154;-77
2021/10/10 09:26:22;;;;;;;10.07;7.93;;;10.50;1.00;;;;;;6248714;23;20253;-79
2021/10/10 09:28:48;;;;;;;9.43;8.30;;;;;;;;;;6249574;23;20170;-79
2021/10/10 09:31:14;;;;;;;8.90;7.50;;;10.80;1.00;;;;;;6247678;23;20162;-78
2021/10/10 09:33:53;;;;;;;8.70;7.90;;;10.90;1.00;;;;;;6247876;23;20489;-79
2021/10/10 09:36:25;;;;;;;9.53;8.30;;;11.00;1.00;;;;;;6252780;23;20142;-78
2021/10/10 09:39:01;;;;;;;10.30;8.20;;;11.20;1.00;;;;;;6249295;23;20193;-77
2021/10/10 09:41:34;;;;;;;10.07;9.07;;;11.10;1.00;;;;;;6246029;23;20169;-78
2021/10/10 09:44:06;;;;;;;8.30;7.50;;;11.30;1.00;;;;;;6246214;23;20163;-78
2021/10/10 09:46:32;;;;;;;9.33;8.00;;;11.30;1.00;;;;;;6246304;23;20697;-78
2021/10/10 09:48:58;;;;;;;8.47;7.67;;;11.40;1.00;;;;;;6246580;23;20188;-77
2021/10/10 09:51:42;;;;;;;9.00;7.80;;;11.60;1.00;;;;;;6244409;23;20160;-78
2021/10/10 09:54:07;;;;;;;10.30;8.73;;;11.50;1.00;;;;;;6240846;23;20163;-78
2021/10/10 09:56:33;;;;;;;8.87;8.07;;;11.60;1.00;;;;;;6240605;23;20185;-79
2021/10/10 09:58:59;;;;;;;7.90;7.17;;;11.50;1.00;;;;;;6241605;23;20607;-77
2021/10/10 10:01:28;;;;;;;9.23;8.43;;;11.50;1.00;;;;;;6240418;23;20157;-77
2021/10/10 10:04:08;;;;;;;30.57;27.63;;;11.50;1.00;;;;;;6245943;22;20509;-77
2021/10/10 10:06:36;;;;;;;664.60;635.63;;;11.70;1.00;;;;;;6250070;23;20219;-78
2021/10/10 10:09:11;;;;;;;698.70;667.17;;;11.60;1.00;;;;;;6244003;23;20579;-77
2021/10/10 10:11:44;;;;;;;808.37;768.57;;;11.90;1.00;;;;;;6250310;23;20175;-78
2021/10/10 10:14:15;;;;;;;951.33;894.50;;;11.90;1.00;;;;;;6247350;23;20169;-78
2021/10/10 10:16:49;;;;;;;994.10;931.50;;;12.10;1.00;;;;;;6250810;23;20185;-79
2021/10/10 10:19:21;;;;;;;967.23;908.80;;;12.10;1.00;;;;;;6249914;23;20623;-78
2021/10/10 10:21:49;;;;;;;955.37;898.63;;;12.40;1.00;;;;;;6249743;23;20167;-78
2021/10/10 10:24:17;;;;;;;893.40;844.90;;;12.50;1.00;;;;;;6249132;22;20237;-78
2021/10/10 10:26:43;;;;;;;894.43;845.57;;;12.50;1.00;;;;;;6246330;23;20158;-79
2021/10/10 10:29:15;;;;;;;868.20;821.57;;;12.50;1.00;;;;;;6244331;23;20279;-77
2021/10/10 10:31:45;;;;;;;816.97;776.47;;;14.10;1.00;;;;;;6224035;23;20172;-78
2021/10/10 10:34:28;;;;;;;861.90;816.67;;;12.60;1.00;;;;;;6248718;23;20566;-78
2021/10/10 10:36:57;;;;;;;924.10;872.03;;;12.60;1.00;;;;;;6250679;23;20156;-78
2021/10/10 10:39:44;;;;;;;956.30;900.60;;;12.70;1.00;;;;;;6249320;23;20190;-78
2021/10/10 10:42:22;;;;;;;970.40;912.43;;;13.10;1.00;;;;;;6248960;23;20169;-78
2021/10/10 10:44:49;;;;;;;258.20;247.70;;;13.00;1.00;;;;;;6245724;23;20177;-81
2021/10/10 10:47:16;;;;;;;190.33;182.83;;;13.00;1.00;;;;;;6249261;23;20160;-79
2021/10/10 10:49:56;;;;;;;637.40;609.60;;;13.20;1.00;;;;;;6254021;23;20593;-79
2021/10/10 10:52:29;;;;;;;186.97;178.57;;;13.20;1.00;;;;;;6250793;23;20160;-79
2021/10/10 10:55:15;;;;;;;135.60;129.63;;;13.50;1.00;;;;;;6248264;23;20166;-78
2021/10/10 10:57:52;;;;;;;471.90;453.80;;;13.50;1.00;;;;;;6248236;23;20197;-79
2021/10/10 11:00:22;;;;;;;543.47;521.60;;;13.90;1.00;;;;;;6248505;23;20188;-77
2021/10/10 11:02:57;;;;;;;697.77;666.10;;;14.20;1.00;;;;;;6247295;22;20172;-79
2021/10/10 11:06:04;;;;;;;702.93;670.83;;;14.30;1.00;;;;;;6248151;23;20199;-79
2021/10/10 11:08:30;;;;;;;804.17;757.63;;;;;;;;;;6223671;23;20158;-79
2021/10/10 11:11:05;;;;;;;604.97;576.23;;;14.30;1.00;;;;;;6249115;23;20164;-78
2021/10/10 11:14:02;;;;;;;585.07;560.70;;;14.30;1.00;;;;;;6247571;23;20160;-78
2021/10/10 11:16:28;;;;;;;634.10;606.93;;;;;;;;;;6247723;23;20173;-79
2021/10/10 11:19:08;;;;;;;740.30;702.77;;;14.70;1.00;;;;;;6248108;23;20170;-79
2021/10/10 11:21:36;;;;;;;565.63;541.97;;;14.60;1.00;;;;;;6248480;23;20148;-79
2021/10/10 11:24:07;;;;;;;708.77;676.60;;;14.80;1.00;;;;;;6248353;23;20164;-79
2021/10/10 11:26:35;;;;;;;627.93;596.00;;;15.50;1.00;;;;;;6251431;23;20195;-79
2021/10/10 11:29:07;;;;;;;546.27;522.80;;;15.80;1.00;;;;;;6248605;23;20158;-79
2021/10/10 11:31:35;;;;;;;593.03;566.10;;;16.40;1.00;;;;;;6252744;23;20150;-80
2021/10/10 11:34:06;;;;;;;496.13;473.43;;;16.40;1.00;;;;;;6251696;23;20160;-80
2021/10/10 11:36:48;;;;;;;115.50;111.07;;;17.70;1.00;;;;;;6252364;23;20183;-80
2021/10/10 11:39:19;;;;;;;246.30;236.47;;;19.80;1.00;;;;;;6253030;23;20186;-80
2021/10/10 11:41:48;;;;;;;625.83;598.33;;;20.20;1.00;;;;;;6253923;23;20147;-80
2021/10/10 11:44:25;;;;;;;782.23;735.83;;;20.50;1.00;;;;;;6247096;23;20158;-79
2021/10/10 11:46:54;;;;;;;764.10;725.00;;;20.70;1.00;;;;;;6252264;23;20135;-81
2021/10/10 11:49:56;;;;;;;949.15;889.22;;;20.70;1.00;;;;;;6249961;23;20169;-79
2021/10/10 11:52:42;;;;;;;921.60;866.90;;;21.40;1.00;;;;;;6250321;23;20156;-79
2021/10/10 11:58:05;;;;;;;934.58;878.00;;;20.90;1.00;;;;;;6260525;23;20144;-79
2021/10/10 12:00:33;;;;;;;782.22;741.88;;;20.70;1.00;;;;;;6250905;23;20189;-79
2021/10/10 12:03:13;;;;;;;1072.43;992.88;;;22.20;1.00;;;;;;6254436;22;20738;-79
2021/10/10 12:05:43;;;;;;;1116.82;999.90;;;22.60;1.00;;;;;;6251226;23;20174;-79
2021/10/10 12:08:18;;;;;;;1148.30;999.90;;;22.30;1.00;;;;;;6252359;23;20172;-79
2021/10/10 12:10:47;;;;;;;1135.88;999.90;;;;;;;;;;6248668;23;20154;-79
2021/10/10 12:13:14;;;;;;;1094.75;999.90;;;22.80;1.00;;;;;;6250682;22;20149;-79
2021/10/10 12:15:42;;;;;;;1063.88;985.85;;;23.00;1.00;;;;;;6224455;23;20158;-79
2021/10/10 12:18:15;;;;;;;1064.82;987.30;;;23.00;1.00;;;;;;6250307;23;20149;-79
2021/10/10 12:20:41;;;;;;;1096.45;999.90;;;22.80;1.00;;;;;;6252487;23;20248;-79
2021/10/10 12:23:12;;;;;;;454.05;427.25;;;22.50;1.00;;;;;;6253915;23;20153;-80
2021/10/10 12:25:39;;;;;;;7.80;7.10;;;23.30;1.00;;;;;;6252713;23;20162;-80
2021/10/10 12:28:19;;;;;;;9.27;8.38;;;23.90;1.00;;;;;;6253301;23;20157;-79
2021/10/10 12:31:00;;;;;;;20.35;18.65;;;24.60;1.00;;;;;;6252911;23;20165;-79
2021/10/10 12:33:31;;;;;;;163.82;156.70;;;24.80;1.00;;;;;;6252507;23;20162;-79
2021/10/10 12:35:59;;;;;;;541.50;517.38;;;24.70;1.00;;;;;;6247225;23;20170;-78
2021/10/10 12:38:41;;;;;;;394.13;375.77;;;24.80;1.00;;;;;;6246718;23;20161;-78
2021/10/10 12:41:21;;;;;;;115.35;108.10;;;25.10;1.00;;;;;;6247998;23;20201;-78
2021/10/10 12:43:49;;;;;;;24.20;23.00;;;25.20;1.00;;;;;;6246685;23;20165;-78
2021/10/10 12:46:19;;;;;;;536.85;513.65;;;26.60;1.00;;;;;;6250057;23;20166;-79
2021/10/10 12:49:05;;;;;;;109.03;104.70;;;26.40;1.00;;;;;;6250825;23;20168;-80
2021/10/10 12:51:33;;;;;;;152.13;145.93;;;26.40;1.00;;;;;;6250002;23;20153;-79
2021/10/10 12:54:20;;;;;;;335.80;323.17;;;27.30;1.00;;;;;;6250184;23;20289;-79
2021/10/10 12:57:04;;;;;;;394.23;378.50;;;27.40;1.00;;;;;;6257646;23;20153;-82
2021/10/10 12:59:32;;;;;;;278.60;267.60;;;27.70;1.00;;;;;;6258197;23;20186;-80
2021/10/10 13:01:58;;;;;;;449.65;430.55;;;;;;;;;;6257556;23;20161;-79